createdAt,value
2023-11-12T00:12:36.903Z,7.00
2023-11-12T00:27:39.065Z,7.28
2023-11-12T00:42:41.262Z,7.40
2023-11-12T00:57:44.299Z,7.40
2023-11-12T01:12:46.456Z,7.80
2023-11-12T01:27:49.828Z,7.18
2023-11-12T01:42:52.347Z,7.35
2023-11-12T01:57:54.376Z,7.35
2023-11-12T02:12:56.440Z,7.10
2023-11-12T02:27:58.645Z,6.97
2023-11-12T02:43:04.450Z,7.07
2023-11-12T02:58:06.477Z,6.57
2023-11-12T03:13:08.943Z,6.53
2023-11-12T03:28:11.137Z,6.60
2023-11-12T03:43:13.771Z,6.75
2023-11-12T03:58:15.981Z,7.00
2023-11-12T04:13:18.174Z,6.70
2023-11-12T04:28:21.285Z,6.63
2023-11-12T04:43:23.292Z,6.50
2023-11-12T04:58:25.294Z,6.70
2023-11-12T05:13:27.486Z,6.35
2023-11-12T05:28:29.743Z,6.57
2023-11-12T05:43:31.756Z,6.80
2023-11-12T05:58:33.724Z,6.30
2023-11-12T06:13:35.723Z,6.78
2023-11-12T06:28:37.751Z,6.95
2023-11-12T06:43:39.810Z,7.70
2023-11-12T06:58:42.176Z,7.80
2023-11-12T07:13:44.137Z,8.35
2023-11-12T07:28:46.215Z,8.70
2023-11-12T07:43:48.216Z,9.77
2023-11-12T07:58:50.280Z,7.97
2023-11-12T08:13:52.238Z,9.15
2023-11-12T08:28:54.546Z,7.50
2023-11-12T08:43:57.465Z,8.63
2023-11-12T08:58:59.738Z,7.80
2023-11-12T09:14:05.205Z,9.02
2023-11-12T09:29:07.181Z,7.47
2023-11-12T09:44:09.225Z,9.50
2023-11-12T09:59:11.383Z,7.32
2023-11-12T10:14:16.886Z,8.30
2023-11-12T10:29:22.510Z,7.78
2023-11-12T10:44:24.573Z,7.90
2023-11-12T10:59:29.033Z,8.48
2023-11-12T11:14:35.787Z,9.70
2023-11-12T11:29:37.887Z,8.38
2023-11-12T11:44:41.278Z,9.50
2023-11-12T11:59:45.051Z,9.98
2023-11-12T12:14:47.922Z,9.75
2023-11-12T12:29:51.494Z,7.65
2023-11-12T12:44:53.865Z,8.20
2023-11-12T12:59:57.089Z,7.45
2023-11-12T13:14:59.358Z,8.80
2023-11-12T13:30:01.514Z,8.10
2023-11-12T13:45:07.778Z,8.38
2023-11-12T14:00:12.851Z,8.35
2023-11-12T14:15:19.801Z,9.13
2023-11-12T14:30:22.051Z,7.90
2023-11-12T14:45:30.435Z,9.60
2023-11-12T15:00:34.411Z,7.72
2023-11-12T15:15:36.771Z,9.60
2023-11-12T15:30:39.306Z,8.65
2023-11-12T15:45:41.373Z,9.40
2023-11-12T16:00:43.505Z,8.80
2023-11-12T16:15:45.566Z,9.65
2023-11-12T16:30:49.327Z,8.38
2023-11-12T16:45:51.941Z,9.20
2023-11-12T17:00:55.922Z,8.75
2023-11-12T17:15:58.165Z,9.70
2023-11-12T17:31:00.278Z,8.30
2023-11-12T17:46:02.459Z,8.77
2023-11-12T18:01:04.945Z,7.82
2023-11-12T18:16:07.372Z,7.72
2023-11-12T18:31:11.620Z,8.20
2023-11-12T18:46:14.653Z,8.85
2023-11-12T19:01:16.800Z,8.88
2023-11-12T19:16:18.976Z,9.10
2023-11-12T19:31:28.370Z,8.38
2023-11-12T19:46:36.401Z,8.30
2023-11-12T20:01:40.843Z,8.20
2023-11-12T20:16:46.463Z,8.10
2023-11-12T20:31:54.152Z,8.00
2023-11-12T20:46:57.098Z,8.23
2023-11-12T21:02:03.786Z,7.90
2023-11-12T21:17:12.454Z,7.60
2023-11-12T21:32:15.416Z,7.63
2023-11-12T21:47:19.865Z,7.20
2023-11-12T22:02:21.976Z,7.30
2023-11-12T22:17:25.717Z,7.30
2023-11-12T22:32:28.907Z,7.57
2023-11-12T22:47:31.594Z,7.70
2023-11-12T23:02:34.000Z,7.55
2023-11-12T23:17:36.160Z,7.38
2023-11-12T23:32:38.394Z,7.32
2023-11-12T23:47:40.888Z,7.70
